Time;durP1;ratioP1;P1;durP2;ratioP2;P2;SDS_P1;SDS_P2;PMS_P1;PMS_P2;Temp;Humidity;BMP_temperature;BMP_pressure;BME280_temperature;BME280_humidity;BME280_pressure;Samples;Min_cycle;Max_cycle;Signal;HPM_P1;HPM_P2
2024/03/11 00:01:06;;;;;;;2.20;1.48;;;;;;;;;;5055001;28;20029;-73
2024/03/11 00:03:32;;;;;;;1.70;1.60;;;;;;;;;;5078086;28;20044;-73
2024/03/11 00:05:58;;;;;;;2.70;1.88;;;;;;;;;;5083657;28;20039;-73
2024/03/11 00:08:25;;;;;;;1.60;1.40;;;;;;;;;;5071297;28;20040;-73
2024/03/11 00:10:55;;;;;;;2.28;2.08;;;;;;;;;;5066144;28;20503;-73
2024/03/11 00:13:25;;;;;;;1.80;1.70;;;;;;;;;;5080631;28;20037;-72
2024/03/11 00:15:51;;;;;;;2.47;1.85;;;;;;;;;;5067106;28;20028;-72
2024/03/11 00:18:18;;;;;;;2.10;1.75;;;;;;;;;;5048581;28;20032;-73
2024/03/11 00:20:47;;;;;;;1.80;1.58;;;;;;;;;;5093703;28;20063;-72
2024/03/11 00:23:13;;;;;;;2.17;1.98;;;;;;;;;;5082834;28;20090;-72
2024/03/11 00:25:45;;;;;;;2.40;1.90;;;;;;;;;;5075110;28;20042;-73
2024/03/11 00:28:11;;;;;;;2.17;1.85;;;;;;;;;;5094461;28;20019;-73
2024/03/11 00:30:37;;;;;;;3.20;1.58;;;;;;;;;;5100667;28;20035;-73
2024/03/11 00:33:04;;;;;;;3.50;2.22;;;;;;;;;;5092899;28;20028;-73
2024/03/11 00:35:30;;;;;;;2.70;2.00;;;;;;;;;;5075805;28;20157;-73
2024/03/11 00:37:56;;;;;;;3.75;2.95;;;;;;;;;;5062402;28;20028;-73
2024/03/11 00:40:25;;;;;;;2.75;2.33;;;;;;;;;;5085174;28;20035;-73
2024/03/11 00:42:52;;;;;;;3.75;2.58;;;;;;;;;;5058633;28;20032;-73
2024/03/11 00:45:18;;;;;;;4.78;2.90;;;;;;;;;;5064700;28;20176;-73
2024/03/11 00:47:45;;;;;;;4.35;2.67;;;;;;;;;;5086227;28;20115;-73
2024/03/11 00:50:13;;;;;;;3.08;2.63;;;;;;;;;;5064221;28;20103;-73
2024/03/11 00:52:39;;;;;;;2.58;2.28;;;;;;;;;;5074195;28;20029;-72
2024/03/11 00:55:09;;;;;;;2.63;2.20;;;;;;;;;;5084399;28;20380;-71
2024/03/11 00:57:35;;;;;;;2.42;2.17;;;;;;;;;;5068673;28;20032;-71
2024/03/11 01:00:04;;;;;;;4.10;2.30;;;;;;;;;;5078430;28;20399;-71
2024/03/11 01:02:32;;;;;;;4.53;2.75;;;;;;;;;;5080820;28;20107;-70
2024/03/11 01:04:58;;;;;;;4.22;2.50;;;;;;;;;;5084574;28;20017;-71
2024/03/11 01:07:27;;;;;;;3.13;2.28;;;;;;;;;;5061423;28;20020;-71
2024/03/11 01:09:54;;;;;;;4.78;2.72;;;;;;;;;;5086861;28;20032;-71
2024/03/11 01:12:25;;;;;;;4.20;2.47;;;;;;;;;;5082925;28;20077;-71
2024/03/11 01:14:51;;;;;;;5.55;2.60;;;;;;;;;;5082826;28;20131;-70
2024/03/11 01:17:18;;;;;;;2.85;2.42;;;;;;;;;;5077944;28;20130;-70
2024/03/11 01:19:44;;;;;;;2.90;2.40;;;;;;;;;;5074680;28;20077;-70
2024/03/11 01:22:15;;;;;;;5.15;2.45;;;;;;;;;;5068970;28;20336;-70
2024/03/11 01:24:41;;;;;;;5.38;2.35;;;;;;;;;;5077292;28;20032;-71
2024/03/11 01:27:11;;;;;;;3.13;2.40;;;;;;;;;;5074495;28;20020;-70
2024/03/11 01:29:38;;;;;;;3.47;2.37;;;;;;;;;;5084574;28;20021;-72
2024/03/11 01:32:06;;;;;;;3.13;2.45;;;;;;;;;;5091646;28;20262;-71
2024/03/11 01:34:33;;;;;;;2.97;1.83;;;;;;;;;;5074002;28;20070;-71
2024/03/11 01:37:04;;;;;;;3.72;2.20;;;;;;;;;;5071845;28;20494;-72
2024/03/11 01:39:42;;;;;;;3.78;2.20;;;;;;;;;;5082709;28;20021;-75
2024/03/11 01:42:14;;;;;;;2.67;1.70;;;;;;;;;;5062287;28;20012;-73
2024/03/11 01:44:42;;;;;;;4.68;1.90;;;;;;;;;;5075408;28;20016;-73
2024/03/11 01:47:12;;;;;;;4.15;1.90;;;;;;;;;;5087777;28;20032;-72
2024/03/11 01:49:39;;;;;;;1.58;1.48;;;;;;;;;;5080403;28;20021;-73
2024/03/11 01:52:08;;;;;;;1.63;1.52;;;;;;;;;;5076674;28;20016;-72
2024/03/11 01:54:36;;;;;;;1.63;1.52;;;;;;;;;;5080613;28;20620;-73
2024/03/11 01:57:04;;;;;;;2.03;1.58;;;;;;;;;;5083703;28;20506;-73
2024/03/11 01:59:34;;;;;;;2.20;1.80;;;;;;;;;;5059199;28;20036;-73
2024/03/11 02:02:00;;;;;;;1.70;1.52;;;;;;;;;;5059633;28;20471;-75
2024/03/11 02:04:28;;;;;;;1.83;1.52;;;;;;;;;;5088325;28;20028;-75
2024/03/11 02:06:55;;;;;;;1.42;1.30;;;;;;;;;;5060223;28;20541;-71
2024/03/11 02:09:21;;;;;;;2.67;1.80;;;;;;;;;;5084883;28;20030;-72
2024/03/11 02:11:48;;;;;;;2.40;1.75;;;;;;;;;;5075481;28;20050;-74
2024/03/11 02:14:15;;;;;;;2.28;1.60;;;;;;;;;;5069695;28;20032;-73
2024/03/11 02:16:41;;;;;;;1.52;1.35;;;;;;;;;;5080765;28;20035;-72
2024/03/11 02:19:12;;;;;;;1.70;1.60;;;;;;;;;;5074098;28;20032;-72
2024/03/11 02:21:48;;;;;;;2.10;1.42;;;;;;;;;;5087697;28;20020;-74
2024/03/11 02:24:15;;;;;;;2.53;1.17;;;;;;;;;;5088015;28;20096;-72
2024/03/11 02:26:43;;;;;;;2.05;1.60;;;;;;;;;;5060849;28;20432;-74
2024/03/11 02:29:10;;;;;;;1.50;1.30;;;;;;;;;;5089385;28;20081;-72
2024/03/11 02:31:37;;;;;;;2.67;1.60;;;;;;;;;;5063998;28;20052;-71
2024/03/11 02:34:05;;;;;;;1.40;1.00;;;;;;;;;;5083161;28;20020;-73
2024/03/11 02:36:31;;;;;;;1.40;1.20;;;;;;;;;;5052295;28;20033;-71
2024/03/11 02:38:57;;;;;;;1.90;1.33;;;;;;;;;;5081483;28;20448;-71
2024/03/11 02:41:23;;;;;;;1.60;1.25;;;;;;;;;;5077428;28;20029;-71
2024/03/11 02:43:50;;;;;;;1.65;1.10;;;;;;;;;;5035374;28;20031;-71
2024/03/11 02:46:16;;;;;;;1.10;1.00;;;;;;;;;;5087387;28;20099;-71
2024/03/11 02:48:43;;;;;;;1.77;1.20;;;;;;;;;;5082105;28;20112;-71
2024/03/11 02:51:09;;;;;;;2.15;1.30;;;;;;;;;;5084730;28;20093;-71
2024/03/11 02:53:36;;;;;;;1.10;1.00;;;;;;;;;;5088501;28;20021;-71
2024/03/11 02:56:07;;;;;;;1.05;1.02;;;;;;;;;;5085569;28;20020;-71
2024/03/11 02:58:35;;;;;;;0.85;0.85;;;;;;;;;;5083104;28;20105;-72
2024/03/11 03:01:01;;;;;;;0.90;0.90;;;;;;;;;;5073008;28;20364;-71
2024/03/11 03:03:27;;;;;;;2.83;1.35;;;;;;;;;;5083900;28;20032;-71
2024/03/11 03:05:53;;;;;;;1.25;1.13;;;;;;;;;;5082899;28;20020;-71
2024/03/11 03:08:20;;;;;;;1.80;1.00;;;;;;;;;;5062891;28;20027;-72
2024/03/11 03:10:46;;;;;;;2.97;1.33;;;;;;;;;;5077155;28;20025;-71
2024/03/11 03:13:12;;;;;;;1.05;0.90;;;;;;;;;;5084250;28;20037;-71
2024/03/11 03:15:38;;;;;;;2.47;1.00;;;;;;;;;;5061729;28;20048;-71
2024/03/11 03:18:05;;;;;;;2.60;1.10;;;;;;;;;;5073767;28;20052;-71
2024/03/11 03:20:31;;;;;;;2.67;1.00;;;;;;;;;;5080058;28;20043;-71
2024/03/11 03:22:57;;;;;;;2.40;1.02;;;;;;;;;;5079752;28;20420;-72
2024/03/11 03:25:30;;;;;;;1.58;0.90;;;;;;;;;;5075026;28;20020;-71
2024/03/11 03:27:56;;;;;;;1.30;0.82;;;;;;;;;;5075948;28;20475;-71
2024/03/11 03:30:22;;;;;;;1.30;1.00;;;;;;;;;;5088945;28;20400;-71
2024/03/11 03:32:48;;;;;;;2.65;0.93;;;;;;;;;;5076372;28;20202;-70
2024/03/11 03:35:14;;;;;;;1.27;1.17;;;;;;;;;;5082813;28;20089;-71
2024/03/11 03:37:41;;;;;;;2.13;0.90;;;;;;;;;;5067105;28;20427;-71
2024/03/11 03:40:16;;;;;;;1.38;0.80;;;;;;;;;;5064855;28;20086;-71
2024/03/11 03:42:43;;;;;;;1.90;1.02;;;;;;;;;;5063794;28;20443;-71
2024/03/11 03:45:09;;;;;;;1.10;0.80;;;;;;;;;;5078182;28;20024;-71
2024/03/11 03:47:36;;;;;;;0.95;0.90;;;;;;;;;;5083250;28;20021;-71
2024/03/11 03:50:03;;;;;;;1.27;1.00;;;;;;;;;;5080602;28;20534;-71
2024/03/11 03:52:29;;;;;;;1.73;0.93;;;;;;;;;;5071081;28;20498;-71
2024/03/11 03:54:55;;;;;;;1.20;0.95;;;;;;;;;;5082313;28;20033;-71
2024/03/11 03:57:26;;;;;;;2.38;1.30;;;;;;;;;;5081290;28;20025;-71
2024/03/11 03:59:53;;;;;;;1.42;1.02;;;;;;;;;;5071198;28;20028;-72
2024/03/11 04:02:19;;;;;;;1.40;0.73;;;;;;;;;;5077575;28;20031;-71
2024/03/11 04:04:46;;;;;;;1.33;1.00;;;;;;;;;;5064399;28;20020;-71
2024/03/11 04:07:13;;;;;;;2.03;1.00;;;;;;;;;;5076226;28;20025;-71
2024/03/11 04:09:39;;;;;;;2.03;1.10;;;;;;;;;;5073582;28;20438;-71
2024/03/11 04:12:06;;;;;;;0.90;0.90;;;;;;;;;;5081705;28;20073;-71
2024/03/11 04:14:32;;;;;;;1.08;0.90;;;;;;;;;;5087846;28;20097;-71
2024/03/11 04:16:58;;;;;;;1.58;0.77;;;;;;;;;;5059635;28;20028;-71
2024/03/11 04:19:28;;;;;;;1.90;1.13;;;;;;;;;;5076422;28;20025;-71
2024/03/11 04:21:54;;;;;;;2.58;1.17;;;;;;;;;;5086738;28;20025;-72
2024/03/11 04:24:20;;;;;;;1.88;1.00;;;;;;;;;;5082851;28;20024;-71
2024/03/11 04:26:47;;;;;;;1.60;1.10;;;;;;;;;;5074015;28;20244;-70
2024/03/11 04:29:15;;;;;;;1.50;1.20;;;;;;;;;;5086099;28;20028;-72
2024/03/11 04:31:41;;;;;;;2.55;1.45;;;;;;;;;;5083544;28;20021;-71
2024/03/11 04:34:08;;;;;;;2.13;1.20;;;;;;;;;;5061948;28;20476;-72
2024/03/11 04:36:41;;;;;;;1.75;1.33;;;;;;;;;;5071519;28;20047;-71
2024/03/11 04:39:07;;;;;;;2.53;1.30;;;;;;;;;;5064616;28;20044;-71
2024/03/11 04:41:35;;;;;;;1.55;1.00;;;;;;;;;;5079815;28;20313;-71
2024/03/11 04:44:02;;;;;;;2.45;1.52;;;;;;;;;;5076145;28;20039;-71
2024/03/11 04:46:28;;;;;;;2.13;1.20;;;;;;;;;;5090175;28;20020;-71
2024/03/11 04:48:55;;;;;;;1.73;1.33;;;;;;;;;;5083097;28;20081;-71
2024/03/11 04:51:22;;;;;;;2.80;1.55;;;;;;;;;;5077399;28;20067;-71
2024/03/11 04:53:48;;;;;;;2.03;1.38;;;;;;;;;;5075102;28;20043;-71
2024/03/11 04:56:15;;;;;;;2.38;1.25;;;;;;;;;;5087548;28;20028;-71
2024/03/11 04:58:41;;;;;;;2.80;1.23;;;;;;;;;;5064456;28;20484;-72
2024/03/11 05:01:08;;;;;;;1.00;1.00;;;;;;;;;;5074945;28;20101;-71
2024/03/11 05:03:34;;;;;;;1.75;1.00;;;;;;;;;;5075875;28;20108;-71
2024/03/11 05:06:00;;;;;;;1.98;1.33;;;;;;;;;;5085609;28;20020;-71
2024/03/11 05:08:27;;;;;;;1.15;1.05;;;;;;;;;;5077102;28;20422;-72
2024/03/11 05:10:53;;;;;;;1.85;1.15;;;;;;;;;;5071354;28;20024;-71
2024/03/11 05:13:19;;;;;;;2.10;1.30;;;;;;;;;;5087188;28;20028;-71
2024/03/11 05:15:47;;;;;;;2.17;1.33;;;;;;;;;;5081143;28;20618;-70
2024/03/11 05:18:15;;;;;;;2.40;1.00;;;;;;;;;;5074077;28;20503;-71
2024/03/11 05:20:46;;;;;;;1.80;1.10;;;;;;;;;;5083407;28;20028;-71
2024/03/11 05:23:12;;;;;;;1.58;1.02;;;;;;;;;;5084639;28;20040;-71
2024/03/11 05:25:38;;;;;;;1.23;1.05;;;;;;;;;;5084839;28;20074;-71
2024/03/11 05:28:04;;;;;;;3.35;0.90;;;;;;;;;;5060515;28;20472;-70
2024/03/11 05:30:30;;;;;;;1.75;1.20;;;;;;;;;;5051697;28;20024;-70
2024/03/11 05:32:58;;;;;;;1.40;1.08;;;;;;;;;;5092170;28;20044;-71
2024/03/11 05:35:25;;;;;;;1.10;0.90;;;;;;;;;;5077504;28;20052;-71
2024/03/11 05:37:52;;;;;;;1.40;1.05;;;;;;;;;;5075280;28;20028;-71
2024/03/11 05:40:19;;;;;;;2.28;1.38;;;;;;;;;;5072818;28;20024;-73
2024/03/11 05:42:48;;;;;;;3.25;2.05;;;;;;;;;;5083908;28;20048;-73
2024/03/11 05:45:14;;;;;;;2.80;1.95;;;;;;;;;;5081279;28;20475;-71
2024/03/11 05:47:45;;;;;;;4.65;2.05;;;;;;;;;;5066907;28;20070;-71
2024/03/11 05:50:17;;;;;;;4.90;2.80;;;;;;;;;;5072263;28;20020;-71
2024/03/11 05:52:48;;;;;;;6.03;2.97;;;;;;;;;;5073641;28;20105;-71
2024/03/11 05:55:14;;;;;;;9.32;3.75;;;;;;;;;;5084120;28;20024;-71
2024/03/11 05:57:42;;;;;;;9.68;3.47;;;;;;;;;;5067548;28;20020;-71
2024/03/11 06:00:09;;;;;;;5.13;2.33;;;;;;;;;;5062592;28;20028;-71
2024/03/11 06:02:38;;;;;;;4.55;2.33;;;;;;;;;;5080772;28;20475;-71
2024/03/11 06:05:05;;;;;;;1.80;1.33;;;;;;;;;;5081108;28;20553;-70
2024/03/11 06:07:33;;;;;;;3.80;1.88;;;;;;;;;;5071191;28;20031;-71
2024/03/11 06:09:59;;;;;;;3.58;1.80;;;;;;;;;;5076297;28;20446;-71
2024/03/11 06:12:28;;;;;;;2.30;1.80;;;;;;;;;;5090901;28;20012;-71
2024/03/11 06:14:55;;;;;;;2.50;1.75;;;;;;;;;;5081251;28;20036;-71
2024/03/11 06:17:21;;;;;;;2.65;1.45;;;;;;;;;;5057472;28;20508;-71
2024/03/11 06:19:47;;;;;;;2.72;1.52;;;;;;;;;;5075470;28;20051;-71
2024/03/11 06:22:16;;;;;;;2.92;1.38;;;;;;;;;;5086367;28;20028;-72
2024/03/11 06:24:42;;;;;;;2.13;1.30;;;;;;;;;;5077030;28;20021;-71
2024/03/11 06:27:08;;;;;;;1.45;1.15;;;;;;;;;;5076268;28;20468;-73
2024/03/11 06:29:35;;;;;;;1.75;1.20;;;;;;;;;;5067467;28;20024;-75
2024/03/11 06:32:05;;;;;;;1.90;1.45;;;;;;;;;;5084071;28;20099;-74
2024/03/11 06:34:31;;;;;;;3.20;1.33;;;;;;;;;;5075804;28;20086;-74
2024/03/11 06:36:57;;;;;;;2.75;1.10;;;;;;;;;;5063072;28;20020;-73
2024/03/11 06:39:24;;;;;;;3.35;1.27;;;;;;;;;;5086883;28;20027;-76
2024/03/11 06:41:50;;;;;;;1.65;1.33;;;;;;;;;;5064125;28;20122;-74
2024/03/11 06:44:18;;;;;;;4.45;1.38;;;;;;;;;;5070252;28;20032;-74
2024/03/11 06:46:44;;;;;;;2.50;1.15;;;;;;;;;;5066826;28;20024;-74
2024/03/11 06:49:11;;;;;;;1.10;0.90;;;;;;;;;;5085599;28;20388;-70
2024/03/11 06:51:37;;;;;;;6.43;2.63;;;;;;;;;;5056817;28;20429;-70
2024/03/11 06:54:04;;;;;;;2.72;1.00;;;;;;;;;;5088947;28;20032;-71
2024/03/11 06:56:32;;;;;;;3.33;1.40;;;;;;;;;;5083984;28;20387;-70
2024/03/11 06:59:01;;;;;;;1.83;1.13;;;;;;;;;;5067657;28;20047;-71
2024/03/11 07:01:27;;;;;;;1.95;0.70;;;;;;;;;;5062102;28;20032;-73
2024/03/11 07:03:55;;;;;;;3.38;1.10;;;;;;;;;;5076641;28;20717;-70
2024/03/11 07:06:22;;;;;;;3.08;0.95;;;;;;;;;;5077575;28;20444;-70
2024/03/11 07:08:50;;;;;;;1.65;0.85;;;;;;;;;;5082604;28;20024;-70
2024/03/11 07:11:17;;;;;;;2.35;0.88;;;;;;;;;;5065945;28;20044;-70
2024/03/11 07:13:43;;;;;;;2.40;0.95;;;;;;;;;;5056028;28;20085;-70
2024/03/11 07:16:12;;;;;;;1.90;1.00;;;;;;;;;;5077940;28;20119;-70
2024/03/11 07:18:39;;;;;;;1.83;0.70;;;;;;;;;;5051960;28;20029;-70
2024/03/11 07:21:06;;;;;;;3.90;0.60;;;;;;;;;;5066073;28;20031;-71
2024/03/11 07:23:38;;;;;;;4.20;0.80;;;7.60;99.90;;;;;;5061890;28;20136;-71
2024/03/11 07:26:04;;;;;;;1.02;0.80;;;7.60;99.90;;;;;;5071634;28;20021;-71
2024/03/11 07:28:31;;;;;;;1.95;0.88;;;7.60;99.90;;;;;;5078088;28;20052;-72
2024/03/11 07:30:57;;;;;;;2.55;0.95;;;7.60;99.90;;;;;;5073298;28;20016;-70
2024/03/11 07:33:23;;;;;;;0.70;0.57;;;7.50;99.90;;;;;;5057660;28;20088;-70
2024/03/11 07:35:51;;;;;;;2.53;0.80;;;7.50;99.90;;;;;;5074399;28;20032;-70
2024/03/11 07:38:17;;;;;;;1.42;0.70;;;7.50;99.90;;;;;;5065330;28;20032;-70
2024/03/11 07:40:44;;;;;;;7.93;0.95;;;7.50;99.90;;;;;;5040222;28;20046;-70
2024/03/11 07:43:10;;;;;;;1.92;0.70;;;7.50;99.90;;;;;;5073351;28;20032;-70
2024/03/11 07:45:40;;;;;;;0.57;0.50;;;7.50;99.90;;;;;;5082889;28;20150;-71
2024/03/11 07:48:10;;;;;;;1.42;0.70;;;7.50;99.90;;;;;;5072221;28;20051;-70
2024/03/11 07:50:35;;;;;;;3.08;0.57;;;7.50;99.90;;;;;;5079172;28;20050;-73
2024/03/11 07:53:01;;;;;;;1.73;0.75;;;7.50;99.90;;;;;;5056775;28;20033;-71
2024/03/11 07:55:28;;;;;;;2.25;0.60;;;7.60;99.90;;;;;;5090209;28;20035;-70
2024/03/11 07:57:55;;;;;;;2.17;0.45;;;7.60;99.90;;;;;;5097012;28;20016;-70
2024/03/11 08:00:29;;;;;;;3.50;0.70;;;7.70;99.90;;;;;;5067601;28;20033;-69
2024/03/11 08:02:57;;;;;;;1.80;0.55;;;7.80;99.90;;;;;;5075270;28;20093;-70
2024/03/11 08:05:23;;;;;;;1.42;0.50;;;7.90;99.90;;;;;;5083552;28;20025;-71
2024/03/11 08:07:49;;;;;;;2.25;0.60;;;8.00;99.90;;;;;;5079648;28;20442;-71
2024/03/11 08:10:16;;;;;;;1.13;0.52;;;8.10;99.90;;;;;;5072633;28;20021;-70
2024/03/11 08:12:43;;;;;;;1.30;0.50;;;8.20;99.90;;;;;;5068021;28;20070;-70
2024/03/11 08:15:12;;;;;;;0.73;0.40;;;8.10;99.90;;;;;;5068998;28;20107;-70
2024/03/11 08:17:43;;;;;;;4.18;0.73;;;8.20;99.90;;;;;;5078610;28;20025;-71
2024/03/11 08:20:10;;;;;;;0.88;0.40;;;8.30;99.90;;;;;;5085772;28;20093;-71
2024/03/11 08:22:43;;;;;;;1.80;0.70;;;8.30;99.90;;;;;;5085121;28;20048;-70
2024/03/11 08:25:10;;;;;;;1.85;0.40;;;8.40;99.90;;;;;;5081374;28;20384;-71
2024/03/11 08:27:41;;;;;;;1.00;0.60;;;;;;;;;;5076431;28;20031;-71
2024/03/11 08:30:09;;;;;;;1.05;0.40;;;;;;;;;;5082474;28;20022;-71
2024/03/11 08:32:41;;;;;;;0.63;0.40;;;8.90;99.90;;;;;;5082517;28;20476;-71
2024/03/11 08:35:07;;;;;;;1.23;0.50;;;8.90;99.90;;;;;;5077354;28;20036;-71
2024/03/11 08:37:33;;;;;;;1.92;0.60;;;9.00;99.90;;;;;;5074720;28;20054;-71
2024/03/11 08:39:58;;;;;;;4.72;0.68;;;9.00;99.90;;;;;;5084670;28;20140;-71
2024/03/11 08:42:25;;;;;;;2.40;0.50;;;9.20;99.90;;;;;;5087261;28;20067;-71
2024/03/11 08:44:52;;;;;;;1.65;0.52;;;9.20;99.90;;;;;;5044785;28;20147;-73
2024/03/11 08:47:19;;;;;;;3.30;0.90;;;9.30;99.90;;;;;;5075705;28;20082;-73
2024/03/11 08:49:45;;;;;;;1.90;0.57;;;9.40;99.90;;;;;;5071195;28;20391;-72
2024/03/11 08:52:14;;;;;;;0.88;0.50;;;9.50;99.90;;;;;;5089694;28;20023;-73
2024/03/11 08:54:41;;;;;;;2.17;0.80;;;9.60;99.90;;;;;;5079756;28;20060;-73
2024/03/11 08:57:12;;;;;;;2.90;0.63;;;;;;;;;;5082167;28;20024;-72
2024/03/11 08:59:38;;;;;;;1.42;0.52;;;;;;;;;;5079742;28;20027;-73
2024/03/11 09:02:07;;;;;;;1.60;0.70;;;;;;;;;;5068211;28;20023;-72
2024/03/11 09:04:33;;;;;;;1.38;0.70;;;10.10;99.90;;;;;;5063065;28;20028;-73
2024/03/11 09:06:59;;;;;;;1.75;0.65;;;10.10;99.90;;;;;;5071970;28;20016;-73
2024/03/11 09:09:26;;;;;;;4.28;0.70;;;;;;;;;;5088938;28;20024;-73
2024/03/11 09:11:58;;;;;;;0.40;0.30;;;;;;;;;;5084021;28;20027;-73
2024/03/11 09:14:27;;;;;;;0.75;0.60;;;;;;;;;;5085680;28;20024;-73
2024/03/11 09:16:58;;;;;;;1.35;0.82;;;;;;;;;;5086610;28;20020;-73
2024/03/11 09:19:25;;;;;;;0.52;0.30;;;;;;;;;;5079888;28;20028;-73
2024/03/11 09:21:52;;;;;;;1.48;0.68;;;;;;;;;;5050147;28;20032;-73
2024/03/11 09:24:19;;;;;;;0.32;0.30;;;;;;;;;;5059940;28;20067;-73
2024/03/11 09:26:53;;;;;;;1.83;0.30;;;;;;;;;;5057998;28;20182;-73
2024/03/11 09:29:21;;;;;;;1.27;0.50;;;11.20;99.90;;;;;;5060251;28;20036;-72
2024/03/11 09:31:49;;;;;;;1.00;0.50;;;11.20;99.90;;;;;;5038159;28;20183;-72
2024/03/11 09:34:19;;;;;;;1.52;0.75;;;;;;;;;;5065158;28;20032;-73
2024/03/11 09:36:47;;;;;;;2.30;0.40;;;;;;;;;;5054337;28;20066;-74
2024/03/11 09:39:13;;;;;;;1.23;0.55;;;;;;;;;;5039748;28;20037;-74
2024/03/11 09:41:45;;;;;;;1.80;0.50;;;;;;;;;;5048691;28;20079;-73
2024/03/11 09:44:15;;;;;;;0.65;0.40;;;;;;;;;;5067062;28;20089;-73
2024/03/11 09:46:56;;;;;;;0.60;0.50;;;;;;;;;;5052311;28;20013;-74
2024/03/11 09:49:25;;;;;;;0.28;0.28;;;;;;;;;;5055507;28;20323;-74
2024/03/11 09:51:53;;;;;;;1.50;0.52;;;;;;;;;;5042606;28;20078;-74
2024/03/11 09:54:21;;;;;;;0.68;0.28;;;;;;;;;;5042887;28;20436;-73
2024/03/11 09:56:48;;;;;;;2.58;0.43;;;;;;;;;;5055692;28;20033;-72
2024/03/11 09:59:24;;;;;;;0.70;0.60;;;;;;;;;;5058361;28;20395;-73
2024/03/11 10:01:54;;;;;;;0.68;0.50;;;;;;;;;;5060835;28;20024;-73
2024/03/11 10:04:23;;;;;;;1.90;0.52;;;;;;;;;;5056705;28;20116;-74
2024/03/11 10:06:59;;;;;;;2.92;0.47;;;;;;;;;;5068061;28;20092;-73
2024/03/11 10:09:28;;;;;;;2.03;0.47;;;12.30;99.90;;;;;;5051882;28;20024;-73
2024/03/11 10:12:10;;;;;;;1.20;0.50;;;;;;;;;;5061932;28;20021;-73
2024/03/11 10:14:38;;;;;;;1.30;0.50;;;;;;;;;;5051254;28;20029;-75
2024/03/11 10:17:24;;;;;;;1.98;0.40;;;;;;;;;;5034349;28;20021;-74
2024/03/11 10:19:56;;;;;;;1.42;0.30;;;;;;;;;;5063302;28;20044;-73
2024/03/11 10:22:26;;;;;;;0.85;0.52;;;;;;;;;;5036016;28;20030;-73
2024/03/11 10:24:57;;;;;;;1.15;0.45;;;;;;;;;;5044316;28;20479;-73
2024/03/11 10:27:43;;;;;;;1.83;0.45;;;;;;;;;;5047162;28;20060;-74
2024/03/11 10:30:38;;;;;;;0.63;0.50;;;;;;;;;;5038459;28;20035;-72
2024/03/11 10:33:08;;;;;;;1.45;0.50;;;;;;;;;;5014159;28;20057;-74
2024/03/11 10:35:34;;;;;;;1.58;0.43;;;12.80;99.90;;;;;;5025293;28;20026;-74
2024/03/11 10:38:08;;;;;;;5.53;0.70;;;12.80;99.90;;;;;;5027392;28;20036;-73
2024/03/11 10:40:36;;;;;;;0.85;0.38;;;12.90;99.90;;;;;;5026183;28;20037;-74
2024/03/11 10:43:20;;;;;;;3.83;0.40;;;13.00;99.90;;;;;;5023984;28;20220;-73
2024/03/11 10:45:47;;;;;;;0.93;0.20;;;13.00;99.90;;;;;;5021134;28;20562;-74
2024/03/11 10:48:15;;;;;;;1.67;0.40;;;13.20;99.90;;;;;;5023540;28;20163;-74
2024/03/11 10:50:41;;;;;;;0.55;0.30;;;13.10;99.90;;;;;;5023123;28;20040;-74
2024/03/11 10:53:21;;;;;;;2.92;0.43;;;13.10;99.90;;;;;;5026037;28;20028;-74
2024/03/11 10:55:58;;;;;;;1.20;0.35;;;13.20;99.90;;;;;;5034360;28;20044;-74
2024/03/11 10:58:29;;;;;;;0.60;0.40;;;13.20;99.90;;;;;;5047009;28;20043;-74
2024/03/11 11:01:00;;;;;;;0.90;0.57;;;13.20;99.90;;;;;;5046317;28;20025;-74
2024/03/11 11:03:27;;;;;;;1.38;0.40;;;13.20;99.90;;;;;;5038079;28;20045;-74
2024/03/11 11:06:01;;;;;;;1.77;0.50;;;13.30;99.90;;;;;;5056908;28;20463;-73
2024/03/11 11:08:30;;;;;;;0.40;0.40;;;13.20;99.90;;;;;;5055072;28;20170;-78
2024/03/11 11:10:58;;;;;;;1.25;0.57;;;13.10;99.90;;;;;;5085948;28;20051;-78
2024/03/11 11:13:34;;;;;;;0.55;0.30;;;13.10;99.90;;;;;;5079517;28;20489;-78
2024/03/11 11:16:03;;;;;;;1.38;0.40;;;13.20;99.90;;;;;;5088350;28;20024;-80
2024/03/11 11:18:50;;;;;;;2.20;0.40;;;13.30;99.90;;;;;;5062066;28;20024;-82
2024/03/11 11:21:16;;;;;;;2.22;0.40;;;13.40;99.00;;;;;;5064807;28;20056;-76
2024/03/11 11:23:41;;;;;;;0.60;0.40;;;13.40;99.10;;;;;;5079997;28;20133;-80
2024/03/11 11:26:07;;;;;;;0.98;0.50;;;13.50;98.40;;;;;;5089030;28;20024;-81
2024/03/11 11:28:37;;;;;;;1.25;0.40;;;13.60;98.40;;;;;;5089001;28;20429;-74
2024/03/11 11:31:14;;;;;;;1.58;0.45;;;13.70;98.20;;;;;;5070648;28;20016;-75
2024/03/11 11:34:06;;;;;;;1.05;0.40;;;13.90;98.70;;;;;;5070358;28;20028;-74
2024/03/11 11:36:58;;;;;;;0.43;0.43;;;14.10;98.40;;;;;;5068777;28;20055;-74
2024/03/11 11:39:27;;;;;;;0.82;0.30;;;14.20;98.00;;;;;;5069224;28;20024;-73
2024/03/11 11:41:54;;;;;;;0.85;0.50;;;14.30;98.00;;;;;;5070554;28;20028;-73
2024/03/11 11:44:47;;;;;;;1.13;0.47;;;14.20;97.50;;;;;;5066716;28;20020;-74
2024/03/11 11:47:15;;;;;;;2.28;0.70;;;14.30;96.90;;;;;;5068805;28;20027;-73
2024/03/11 11:49:43;;;;;;;0.82;0.30;;;14.60;96.90;;;;;;5087734;28;20491;-72
2024/03/11 11:52:14;;;;;;;0.80;0.50;;;15.00;99.30;;;;;;5089109;28;20028;-74
2024/03/11 11:54:40;;;;;;;3.13;1.38;;;15.30;99.90;;;;;;5087695;28;20016;-72
2024/03/11 11:57:11;;;;;;;0.55;0.50;;;15.70;96.90;;;;;;5070631;28;20495;-72
2024/03/11 11:59:38;;;;;;;1.63;0.60;;;15.90;95.70;;;;;;5087032;28;20024;-73
2024/03/11 12:02:06;;;;;;;1.48;0.63;;;16.40;95.50;;;;;;5070438;28;20024;-75
2024/03/11 12:04:35;;;;;;;3.25;0.82;;;17.00;96.60;;;;;;5088859;28;20579;-74
2024/03/11 12:07:02;;;;;;;2.55;0.47;;;17.50;95.60;;;;;;5070668;28;20444;-72
2024/03/11 12:09:33;;;;;;;0.73;0.60;;;17.40;95.80;;;;;;5087670;28;20023;-72
2024/03/11 12:11:59;;;;;;;2.55;0.50;;;17.30;95.90;;;;;;5088705;28;20027;-72
2024/03/11 12:14:25;;;;;;;0.75;0.30;;;17.20;95.40;;;;;;5078353;28;20035;-73
2024/03/11 12:17:07;;;;;;;2.13;0.88;;;17.40;95.30;;;;;;5072267;28;20028;-75
2024/03/11 12:19:34;;;;;;;0.70;0.43;;;17.60;94.70;;;;;;5087384;28;20035;-73
2024/03/11 12:21:59;;;;;;;0.38;0.30;;;17.90;93.90;;;;;;5090742;28;20016;-72
2024/03/11 12:24:25;;;;;;;0.65;0.65;;;17.80;93.80;;;;;;5087841;28;20432;-73
2024/03/11 12:26:52;;;;;;;1.38;0.80;;;17.60;94.10;;;;;;5086750;28;20019;-74
2024/03/11 12:29:21;;;;;;;0.43;0.32;;;17.80;93.70;;;;;;5089430;28;20092;-73
2024/03/11 12:31:55;;;;;;;0.85;0.55;;;17.60;93.20;;;;;;5071821;28;20020;-74
2024/03/11 12:34:24;;;;;;;1.90;0.35;;;17.80;93.60;;;;;;5091779;28;20024;-74
2024/03/11 12:36:51;;;;;;;3.70;0.50;;;18.40;93.30;;;;;;5091556;28;20028;-74
2024/03/11 12:39:33;;;;;;;0.55;0.30;;;18.90;95.70;;;;;;5090472;28;20185;-74
2024/03/11 12:42:01;;;;;;;0.80;0.70;;;19.30;92.50;;;;;;5092097;28;20031;-74
2024/03/11 12:44:31;;;;;;;0.68;0.55;;;;;;;;;;5061844;28;20048;-74
2024/03/11 12:47:01;;;;;;;;;;;;;;;;;;5070525;28;20042;-74
2024/03/11 12:49:30;;;;;;;0.40;0.40;;;;;;;;;;5092355;28;20337;-74
2024/03/11 12:52:14;;;;;;;1.30;0.55;;;;;;;;;;5089537;28;20024;-75
2024/03/11 12:54:40;;;;;;;0.88;0.60;;;;;;;;;;5090147;28;20089;-74
2024/03/11 12:57:28;;;;;;;1.17;0.40;;;;;;;;;;5104374;28;20023;-74
2024/03/11 12:59:58;;;;;;;0.20;0.20;;;;;;;;;;5090930;28;20024;-73
2024/03/11 13:02:26;;;;;;;0.65;0.40;;;;;;;;;;5089870;28;20027;-74
2024/03/11 13:04:57;;;;;;;0.65;0.40;;;;;;;;;;5082369;28;20789;-73
2024/03/11 13:07:24;;;;;;;0.60;0.30;;;;;;;;;;5100014;28;20027;-72
2024/03/11 13:09:57;;;;;;;0.63;0.50;;;;;;;;;;5070470;28;20024;-73
2024/03/11 13:12:28;;;;;;;0.55;0.40;;;;;;;;;;5091227;28;20028;-73
2024/03/11 13:14:55;;;;;;;0.40;0.40;;;;;;;;;;5090308;28;20040;-73
2024/03/11 13:17:22;;;;;;;0.30;0.20;;;;;;;;;;5091592;28;20046;-73
2024/03/11 13:19:57;;;;;;;0.57;0.30;;;;;;;;;;5091094;28;20028;-73
2024/03/11 13:22:24;;;;;;;0.20;0.20;;;;;;;;;;5089349;28;20066;-72
2024/03/11 13:24:56;;;;;;;0.20;0.20;;;;;;;;;;5069708;28;20037;-72
2024/03/11 13:27:24;;;;;;;0.43;0.40;;;;;;;;;;5075773;28;20025;-72
2024/03/11 13:29:50;;;;;;;1.52;0.60;;;;;;;;;;5062227;28;20082;-72
2024/03/11 13:32:16;;;;;;;0.47;0.40;;;;;;;;;;5057280;28;20512;-72
2024/03/11 13:34:43;;;;;;;0.55;0.40;;;;;;;;;;5065647;28;20036;-72
2024/03/11 13:37:09;;;;;;;0.30;0.30;;;;;;;;;;5040116;28;20032;-73
2024/03/11 13:39:38;;;;;;;2.45;0.30;;;;;;;;;;5054390;28;20096;-73
2024/03/11 13:42:06;;;;;;;1.48;0.40;;;;;;;;;;5066177;28;20029;-72
2024/03/11 13:44:33;;;;;;;0.82;0.38;;;;;;;;;;5082627;28;20037;-73
2024/03/11 13:47:01;;;;;;;2.42;0.32;;;;;;;;;;5084642;28;20008;-72
2024/03/11 13:49:28;;;;;;;0.28;0.22;;;;;;;;;;5063636;28;20017;-72
2024/03/11 13:51:55;;;;;;;0.47;0.45;;;;;;;;;;5064168;28;20041;-71
2024/03/11 13:54:21;;;;;;;4.75;0.50;;;;;;;;;;5061263;28;20024;-73
2024/03/11 13:56:49;;;;;;;0.50;0.20;;;;;;;;;;5068691;28;20600;-72
2024/03/11 13:59:18;;;;;;;3.30;0.38;;;;;;;;;;5059750;28;20116;-72
2024/03/11 14:01:48;;;;;;;4.07;0.75;;;;;;;;;;5051006;28;20028;-72
2024/03/11 14:04:14;;;;;;;0.73;0.30;;;15.60;79.90;;;;;;5063727;28;20020;-73
2024/03/11 14:06:41;;;;;;;0.82;0.30;;;15.30;80.70;;;;;;5058042;28;20099;-73
2024/03/11 14:09:12;;;;;;;0.50;0.40;;;15.10;80.80;;;;;;5047449;28;20024;-72
2024/03/11 14:11:42;;;;;;;1.67;0.20;;;15.00;81.90;;;;;;5057471;28;20079;-72
2024/03/11 14:14:08;;;;;;;0.70;0.30;;;15.00;82.20;;;;;;5031950;28;20119;-73
2024/03/11 14:16:37;;;;;;;1.17;0.40;;;14.90;82.90;;;;;;5065536;28;20126;-73